sensor_id;sensor_type;location;lat;lon;timestamp;P1;P2;P0
55276;PMS5003;41136;51.478;-2.610;2023-05-07T00:00:35;25;17;
55276;PMS5003;41136;51.478;-2.610;2023-05-07T00:03:00;18;17;
55276;PMS5003;41136;51.478;-2.610;2023-05-07T00:05:25;21;18;
55276;PMS5003;41136;51.478;-2.610;2023-05-07T00:07:51;18;16;
55276;PMS5003;41136;51.478;-2.610;2023-05-07T00:10:16;29;22;
55276;PMS5003;41136;51.478;-2.610;2023-05-07T00:12:42;21;17;
55276;PMS5003;41136;51.478;-2.610;2023-05-07T00:15:08;17;15;
55276;PMS5003;41136;51.478;-2.610;2023-05-07T00:17:33;21;20;
55276;PMS5003;41136;51.478;-2.610;2023-05-07T00:19:59;22;18;
55276;PMS5003;41136;51.478;-2.610;2023-05-07T00:22:25;22;19;
55276;PMS5003;41136;51.478;-2.610;2023-05-07T00:24:51;20;18;
55276;PMS5003;41136;51.478;-2.610;2023-05-07T00:27:17;18;18;
55276;PMS5003;41136;51.478;-2.610;2023-05-07T00:29:42;22;17;
55276;PMS5003;41136;51.478;-2.610;2023-05-07T00:32:08;19;17;
55276;PMS5003;41136;51.478;-2.610;2023-05-07T00:34:33;18;17;
55276;PMS5003;41136;51.478;-2.610;2023-05-07T00:36:59;21;16;
55276;PMS5003;41136;51.478;-2.610;2023-05-07T00:39:24;19;17;
55276;PMS5003;41136;51.478;-2.610;2023-05-07T00:41:49;25;18;
55276;PMS5003;41136;51.478;-2.610;2023-05-07T00:44:15;23;18;
55276;PMS5003;41136;51.478;-2.610;2023-05-07T00:46:40;20;20;
55276;PMS5003;41136;51.478;-2.610;2023-05-07T00:49:05;19;16;
55276;PMS5003;41136;51.478;-2.610;2023-05-07T00:51:31;25;21;
55276;PMS5003;41136;51.478;-2.610;2023-05-07T00:53:56;18;18;
55276;PMS5003;41136;51.478;-2.610;2023-05-07T00:56:22;20;20;
55276;PMS5003;41136;51.478;-2.610;2023-05-07T00:58:47;22;21;
55276;PMS5003;41136;51.478;-2.610;2023-05-07T01:01:13;26;23;
55276;PMS5003;41136;51.478;-2.610;2023-05-07T01:03:38;21;21;
55276;PMS5003;41136;51.478;-2.610;2023-05-07T01:08:30;23;20;
55276;PMS5003;41136;51.478;-2.610;2023-05-07T01:10:56;26;20;
55276;PMS5003;41136;51.478;-2.610;2023-05-07T01:16:26;29;23;
55276;PMS5003;41136;51.478;-2.610;2023-05-07T01:18:52;28;25;
55276;PMS5003;41136;51.478;-2.610;2023-05-07T01:21:17;23;19;
55276;PMS5003;41136;51.478;-2.610;2023-05-07T01:23:42;33;27;
55276;PMS5003;41136;51.478;-2.610;2023-05-07T01:26:07;26;21;
55276;PMS5003;41136;51.478;-2.610;2023-05-07T01:28:33;25;20;
55276;PMS5003;41136;51.478;-2.610;2023-05-07T01:31:00;23;21;
55276;PMS5003;41136;51.478;-2.610;2023-05-07T01:33:23;29;25;
55276;PMS5003;41136;51.478;-2.610;2023-05-07T01:35:50;24;21;
55276;PMS5003;41136;51.478;-2.610;2023-05-07T01:38:14;25;21;
55276;PMS5003;41136;51.478;-2.610;2023-05-07T01:40:40;23;19;
55276;PMS5003;41136;51.478;-2.610;2023-05-07T01:43:05;25;24;
55276;PMS5003;41136;51.478;-2.610;2023-05-07T01:45:31;30;21;
55276;PMS5003;41136;51.478;-2.610;2023-05-07T01:47:57;26;25;
55276;PMS5003;41136;51.478;-2.610;2023-05-07T01:50:21;24;21;
55276;PMS5003;41136;51.478;-2.610;2023-05-07T01:52:47;28;23;
55276;PMS5003;41136;51.478;-2.610;2023-05-07T01:55:13;20;20;
55276;PMS5003;41136;51.478;-2.610;2023-05-07T01:57:39;22;22;
55276;PMS5003;41136;51.478;-2.610;2023-05-07T02:00:05;31;24;
55276;PMS5003;41136;51.478;-2.610;2023-05-07T02:02:30;31;27;
55276;PMS5003;41136;51.478;-2.610;2023-05-07T02:04:56;21;21;
55276;PMS5003;41136;51.478;-2.610;2023-05-07T02:07:21;21;21;
55276;PMS5003;41136;51.478;-2.610;2023-05-07T02:09:47;29;25;
55276;PMS5003;41136;51.478;-2.610;2023-05-07T02:12:12;25;19;
55276;PMS5003;41136;51.478;-2.610;2023-05-07T02:14:37;31;23;
55276;PMS5003;41136;51.478;-2.610;2023-05-07T02:17:03;26;23;
55276;PMS5003;41136;51.478;-2.610;2023-05-07T02:19:28;27;20;
55276;PMS5003;41136;51.478;-2.610;2023-05-07T02:21:54;24;20;
55276;PMS5003;41136;51.478;-2.610;2023-05-07T02:24:19;29;27;
55276;PMS5003;41136;51.478;-2.610;2023-05-07T02:26:45;32;25;
55276;PMS5003;41136;51.478;-2.610;2023-05-07T02:29:10;23;20;
55276;PMS5003;41136;51.478;-2.610;2023-05-07T02:31:35;25;22;
55276;PMS5003;41136;51.478;-2.610;2023-05-07T02:34:01;27;24;
55276;PMS5003;41136;51.478;-2.610;2023-05-07T02:36:27;27;24;
55276;PMS5003;41136;51.478;-2.610;2023-05-07T02:38:53;26;23;
55276;PMS5003;41136;51.478;-2.610;2023-05-07T02:41:18;34;24;
55276;PMS5003;41136;51.478;-2.610;2023-05-07T02:43:43;29;23;
55276;PMS5003;41136;51.478;-2.610;2023-05-07T02:46:09;34;26;
55276;PMS5003;41136;51.478;-2.610;2023-05-07T02:48:34;29;27;
55276;PMS5003;41136;51.478;-2.610;2023-05-07T02:51:00;32;28;
55276;PMS5003;41136;51.478;-2.610;2023-05-07T02:53:25;30;26;
55276;PMS5003;41136;51.478;-2.610;2023-05-07T02:55:50;29;25;
55276;PMS5003;41136;51.478;-2.610;2023-05-07T02:58:16;35;32;
55276;PMS5003;41136;51.478;-2.610;2023-05-07T03:00:41;35;24;
55276;PMS5003;41136;51.478;-2.610;2023-05-07T03:03:06;32;28;
55276;PMS5003;41136;51.478;-2.610;2023-05-07T03:05:31;41;27;
55276;PMS5003;41136;51.478;-2.610;2023-05-07T03:07:57;37;30;
55276;PMS5003;41136;51.478;-2.610;2023-05-07T03:10:22;32;27;
55276;PMS5003;41136;51.478;-2.610;2023-05-07T03:12:48;42;37;
55276;PMS5003;41136;51.478;-2.610;2023-05-07T03:15:13;36;32;
55276;PMS5003;41136;51.478;-2.610;2023-05-07T03:17:39;30;28;
55276;PMS5003;41136;51.478;-2.610;2023-05-07T03:20:05;35;31;
55276;PMS5003;41136;51.478;-2.610;2023-05-07T03:22:30;42;38;
55276;PMS5003;41136;51.478;-2.610;2023-05-07T03:24:56;41;34;
55276;PMS5003;41136;51.478;-2.610;2023-05-07T03:27:21;31;27;
55276;PMS5003;41136;51.478;-2.610;2023-05-07T03:29:46;36;31;
55276;PMS5003;41136;51.478;-2.610;2023-05-07T03:32:12;37;30;
55276;PMS5003;41136;51.478;-2.610;2023-05-07T03:34:37;40;31;
55276;PMS5003;41136;51.478;-2.610;2023-05-07T03:37:02;31;28;
55276;PMS5003;41136;51.478;-2.610;2023-05-07T03:39:28;40;33;
55276;PMS5003;41136;51.478;-2.610;2023-05-07T03:41:53;43;36;
55276;PMS5003;41136;51.478;-2.610;2023-05-07T03:44:19;39;34;
55276;PMS5003;41136;51.478;-2.610;2023-05-07T03:46:44;33;30;
55276;PMS5003;41136;51.478;-2.610;2023-05-07T03:49:10;38;30;
55276;PMS5003;41136;51.478;-2.610;2023-05-07T03:51:35;39;34;
55276;PMS5003;41136;51.478;-2.610;2023-05-07T03:54:01;39;31;
55276;PMS5003;41136;51.478;-2.610;2023-05-07T03:56:26;37;29;
55276;PMS5003;41136;51.478;-2.610;2023-05-07T03:58:51;36;28;
55276;PMS5003;41136;51.478;-2.610;2023-05-07T04:01:17;46;34;
55276;PMS5003;41136;51.478;-2.610;2023-05-07T04:03:42;37;31;
55276;PMS5003;41136;51.478;-2.610;2023-05-07T04:06:08;49;34;
55276;PMS5003;41136;51.478;-2.610;2023-05-07T04:08:33;47;38;
55276;PMS5003;41136;51.478;-2.610;2023-05-07T04:10:59;43;36;
55276;PMS5003;41136;51.478;-2.610;2023-05-07T04:13:24;45;40;
55276;PMS5003;41136;51.478;-2.610;2023-05-07T04:15:50;44;35;
55276;PMS5003;41136;51.478;-2.610;2023-05-07T04:18:15;46;35;
55276;PMS5003;41136;51.478;-2.610;2023-05-07T04:20:41;42;31;
55276;PMS5003;41136;51.478;-2.610;2023-05-07T04:23:06;43;39;
55276;PMS5003;41136;51.478;-2.610;2023-05-07T04:25:32;41;36;
55276;PMS5003;41136;51.478;-2.610;2023-05-07T04:27:57;39;36;
55276;PMS5003;41136;51.478;-2.610;2023-05-07T04:30:22;45;38;
55276;PMS5003;41136;51.478;-2.610;2023-05-07T04:32:47;51;38;
55276;PMS5003;41136;51.478;-2.610;2023-05-07T04:35:13;33;31;
55276;PMS5003;41136;51.478;-2.610;2023-05-07T04:37:38;43;33;
55276;PMS5003;41136;51.478;-2.610;2023-05-07T04:40:04;44;39;
55276;PMS5003;41136;51.478;-2.610;2023-05-07T04:42:29;43;34;
55276;PMS5003;41136;51.478;-2.610;2023-05-07T04:49:07;42;34;
55276;PMS5003;41136;51.478;-2.610;2023-05-07T04:51:33;38;33;
55276;PMS5003;41136;51.478;-2.610;2023-05-07T04:53:58;32;30;
55276;PMS5003;41136;51.478;-2.610;2023-05-07T04:56:23;38;32;
55276;PMS5003;41136;51.478;-2.610;2023-05-07T04:58:49;31;27;
55276;PMS5003;41136;51.478;-2.610;2023-05-07T05:01:14;29;27;
55276;PMS5003;41136;51.478;-2.610;2023-05-07T05:03:39;27;26;
55276;PMS5003;41136;51.478;-2.610;2023-05-07T05:06:05;35;31;
55276;PMS5003;41136;51.478;-2.610;2023-05-07T05:08:30;33;23;
55276;PMS5003;41136;51.478;-2.610;2023-05-07T05:10:56;29;22;
55276;PMS5003;41136;51.478;-2.610;2023-05-07T05:13:21;29;24;
55276;PMS5003;41136;51.478;-2.610;2023-05-07T05:15:47;34;28;
55276;PMS5003;41136;51.478;-2.610;2023-05-07T05:18:13;29;23;
55276;PMS5003;41136;51.478;-2.610;2023-05-07T05:20:39;30;27;
55276;PMS5003;41136;51.478;-2.610;2023-05-07T05:23:04;22;21;
55276;PMS5003;41136;51.478;-2.610;2023-05-07T05:25:29;24;20;
55276;PMS5003;41136;51.478;-2.610;2023-05-07T05:27:55;27;20;
55276;PMS5003;41136;51.478;-2.610;2023-05-07T05:30:21;27;23;
55276;PMS5003;41136;51.478;-2.610;2023-05-07T05:32:47;24;21;
55276;PMS5003;41136;51.478;-2.610;2023-05-07T05:35:12;26;23;
55276;PMS5003;41136;51.478;-2.610;2023-05-07T05:37:37;24;18;
55276;PMS5003;41136;51.478;-2.610;2023-05-07T05:40:02;23;22;
55276;PMS5003;41136;51.478;-2.610;2023-05-07T05:42:28;21;20;
55276;PMS5003;41136;51.478;-2.610;2023-05-07T05:44:54;26;23;
55276;PMS5003;41136;51.478;-2.610;2023-05-07T05:47:20;21;17;
55276;PMS5003;41136;51.478;-2.610;2023-05-07T05:49:45;23;22;
55276;PMS5003;41136;51.478;-2.610;2023-05-07T05:52:11;23;20;
55276;PMS5003;41136;51.478;-2.610;2023-05-07T05:54:36;20;19;
55276;PMS5003;41136;51.478;-2.610;2023-05-07T05:57:01;20;20;
55276;PMS5003;41136;51.478;-2.610;2023-05-07T05:59:27;24;19;
55276;PMS5003;41136;51.478;-2.610;2023-05-07T06:01:52;23;22;
55276;PMS5003;41136;51.478;-2.610;2023-05-07T06:04:18;26;21;
55276;PMS5003;41136;51.478;-2.610;2023-05-07T06:06:43;22;19;
55276;PMS5003;41136;51.478;-2.610;2023-05-07T06:09:09;27;24;
55276;PMS5003;41136;51.478;-2.610;2023-05-07T06:11:34;30;18;
55276;PMS5003;41136;51.478;-2.610;2023-05-07T06:13:59;22;21;
55276;PMS5003;41136;51.478;-2.610;2023-05-07T06:16:25;23;21;
55276;PMS5003;41136;51.478;-2.610;2023-05-07T06:18:50;23;20;
55276;PMS5003;41136;51.478;-2.610;2023-05-07T06:21:16;22;19;
55276;PMS5003;41136;51.478;-2.610;2023-05-07T06:23:41;24;22;
55276;PMS5003;41136;51.478;-2.610;2023-05-07T06:26:07;26;21;
55276;PMS5003;41136;51.478;-2.610;2023-05-07T06:28:32;25;22;
55276;PMS5003;41136;51.478;-2.610;2023-05-07T06:33:23;21;19;
55276;PMS5003;41136;51.478;-2.610;2023-05-07T06:35:48;20;20;
55276;PMS5003;41136;51.478;-2.610;2023-05-07T06:38:13;20;16;
55276;PMS5003;41136;51.478;-2.610;2023-05-07T06:40:39;24;19;
55276;PMS5003;41136;51.478;-2.610;2023-05-07T06:43:05;28;23;
55276;PMS5003;41136;51.478;-2.610;2023-05-07T06:45:30;23;22;
55276;PMS5003;41136;51.478;-2.610;2023-05-07T06:47:55;26;17;
55276;PMS5003;41136;51.478;-2.610;2023-05-07T06:50:21;23;20;
55276;PMS5003;41136;51.478;-2.610;2023-05-07T06:52:46;18;17;
55276;PMS5003;41136;51.478;-2.610;2023-05-07T06:55:12;29;16;
55276;PMS5003;41136;51.478;-2.610;2023-05-07T06:57:38;26;21;
55276;PMS5003;41136;51.478;-2.610;2023-05-07T07:00:04;23;17;
55276;PMS5003;41136;51.478;-2.610;2023-05-07T07:02:29;21;16;
55276;PMS5003;41136;51.478;-2.610;2023-05-07T07:04:54;19;15;
55276;PMS5003;41136;51.478;-2.610;2023-05-07T07:07:19;21;16;
55276;PMS5003;41136;51.478;-2.610;2023-05-07T07:09:45;26;20;
55276;PMS5003;41136;51.478;-2.610;2023-05-07T07:12:10;19;15;
55276;PMS5003;41136;51.478;-2.610;2023-05-07T07:14:36;15;12;
55276;PMS5003;41136;51.478;-2.610;2023-05-07T07:17:02;13;13;
55276;PMS5003;41136;51.478;-2.610;2023-05-07T07:19:27;20;15;
55276;PMS5003;41136;51.478;-2.610;2023-05-07T07:21:52;16;16;
55276;PMS5003;41136;51.478;-2.610;2023-05-07T07:24:18;22;16;
55276;PMS5003;41136;51.478;-2.610;2023-05-07T07:26:43;20;15;
55276;PMS5003;41136;51.478;-2.610;2023-05-07T07:29:09;15;13;
55276;PMS5003;41136;51.478;-2.610;2023-05-07T07:31:34;11;10;
55276;PMS5003;41136;51.478;-2.610;2023-05-07T07:34:00;15;13;
55276;PMS5003;41136;51.478;-2.610;2023-05-07T07:36:25;10;10;
55276;PMS5003;41136;51.478;-2.610;2023-05-07T07:38:50;13;13;
55276;PMS5003;41136;51.478;-2.610;2023-05-07T07:41:16;14;14;
55276;PMS5003;41136;51.478;-2.610;2023-05-07T07:43:41;12;11;
55276;PMS5003;41136;51.478;-2.610;2023-05-07T07:46:06;14;10;
55276;PMS5003;41136;51.478;-2.610;2023-05-07T07:48:32;14;12;
55276;PMS5003;41136;51.478;-2.610;2023-05-07T07:50:57;15;14;
55276;PMS5003;41136;51.478;-2.610;2023-05-07T07:53:22;13;13;
55276;PMS5003;41136;51.478;-2.610;2023-05-07T07:55:48;18;17;
55276;PMS5003;41136;51.478;-2.610;2023-05-07T07:58:13;14;14;
55276;PMS5003;41136;51.478;-2.610;2023-05-07T08:00:38;16;16;
55276;PMS5003;41136;51.478;-2.610;2023-05-07T08:03:03;16;13;
55276;PMS5003;41136;51.478;-2.610;2023-05-07T08:05:33;9;9;
55276;PMS5003;41136;51.478;-2.610;2023-05-07T08:07:54;11;10;
55276;PMS5003;41136;51.478;-2.610;2023-05-07T08:10:19;11;9;
55276;PMS5003;41136;51.478;-2.610;2023-05-07T08:12:44;9;7;
55276;PMS5003;41136;51.478;-2.610;2023-05-07T08:15:10;8;8;
55276;PMS5003;41136;51.478;-2.610;2023-05-07T08:17:35;8;7;
55276;PMS5003;41136;51.478;-2.610;2023-05-07T08:20:00;8;8;
55276;PMS5003;41136;51.478;-2.610;2023-05-07T08:22:26;5;5;
55276;PMS5003;41136;51.478;-2.610;2023-05-07T08:24:51;5;5;
55276;PMS5003;41136;51.478;-2.610;2023-05-07T08:27:16;7;6;
55276;PMS5003;41136;51.478;-2.610;2023-05-07T08:29:41;7;7;
55276;PMS5003;41136;51.478;-2.610;2023-05-07T08:32:07;7;6;
55276;PMS5003;41136;51.478;-2.610;2023-05-07T08:34:32;8;7;
55276;PMS5003;41136;51.478;-2.610;2023-05-07T08:36:57;5;5;
55276;PMS5003;41136;51.478;-2.610;2023-05-07T08:39:23;7;5;
55276;PMS5003;41136;51.478;-2.610;2023-05-07T08:41:49;7;5;
55276;PMS5003;41136;51.478;-2.610;2023-05-07T08:44:14;6;4;
55276;PMS5003;41136;51.478;-2.610;2023-05-07T08:46:39;6;6;
55276;PMS5003;41136;51.478;-2.610;2023-05-07T08:49:04;6;5;
55276;PMS5003;41136;51.478;-2.610;2023-05-07T08:51:30;6;6;
55276;PMS5003;41136;51.478;-2.610;2023-05-07T08:53:56;5;5;
55276;PMS5003;41136;51.478;-2.610;2023-05-07T08:56:21;6;4;
55276;PMS5003;41136;51.478;-2.610;2023-05-07T08:58:47;7;6;
55276;PMS5003;41136;51.478;-2.610;2023-05-07T09:01:13;7;6;
55276;PMS5003;41136;51.478;-2.610;2023-05-07T09:03:38;6;5;
55276;PMS5003;41136;51.478;-2.610;2023-05-07T09:06:02;5;3;
55276;PMS5003;41136;51.478;-2.610;2023-05-07T09:08:27;7;6;
55276;PMS5003;41136;51.478;-2.610;2023-05-07T09:10:53;4;4;
55276;PMS5003;41136;51.478;-2.610;2023-05-07T09:13:18;4;4;
55276;PMS5003;41136;51.478;-2.610;2023-05-07T09:15:43;6;5;
55276;PMS5003;41136;51.478;-2.610;2023-05-07T09:18:09;3;3;
55276;PMS5003;41136;51.478;-2.610;2023-05-07T09:20:35;7;4;
55276;PMS5003;41136;51.478;-2.610;2023-05-07T09:22:59;9;7;
55276;PMS5003;41136;51.478;-2.610;2023-05-07T09:25:28;7;7;
55276;PMS5003;41136;51.478;-2.610;2023-05-07T09:27:50;5;5;
55276;PMS5003;41136;51.478;-2.610;2023-05-07T09:30:15;8;6;
55276;PMS5003;41136;51.478;-2.610;2023-05-07T09:32:41;6;6;
55276;PMS5003;41136;51.478;-2.610;2023-05-07T09:35:08;5;4;
55276;PMS5003;41136;51.478;-2.610;2023-05-07T09:37:31;6;6;
55276;PMS5003;41136;51.478;-2.610;2023-05-07T09:39:57;6;6;
55276;PMS5003;41136;51.478;-2.610;2023-05-07T09:42:24;8;6;
55276;PMS5003;41136;51.478;-2.610;2023-05-07T09:44:48;9;8;
55276;PMS5003;41136;51.478;-2.610;2023-05-07T09:47:14;8;8;
55276;PMS5003;41136;51.478;-2.610;2023-05-07T09:49:39;9;9;
55276;PMS5003;41136;51.478;-2.610;2023-05-07T09:52:05;9;9;
55276;PMS5003;41136;51.478;-2.610;2023-05-07T09:54:30;7;7;
55276;PMS5003;41136;51.478;-2.610;2023-05-07T09:56:55;7;7;
55276;PMS5003;41136;51.478;-2.610;2023-05-07T09:59:20;11;10;
55276;PMS5003;41136;51.478;-2.610;2023-05-07T10:01:46;13;11;
55276;PMS5003;41136;51.478;-2.610;2023-05-07T10:04:11;8;8;
55276;PMS5003;41136;51.478;-2.610;2023-05-07T10:06:37;8;8;
55276;PMS5003;41136;51.478;-2.610;2023-05-07T10:09:02;7;5;
55276;PMS5003;41136;51.478;-2.610;2023-05-07T10:11:27;7;7;
55276;PMS5003;41136;51.478;-2.610;2023-05-07T10:13:52;5;5;
55276;PMS5003;41136;51.478;-2.610;2023-05-07T10:16:17;7;7;
55276;PMS5003;41136;51.478;-2.610;2023-05-07T10:18:43;8;7;
55276;PMS5003;41136;51.478;-2.610;2023-05-07T10:21:08;7;7;
55276;PMS5003;41136;51.478;-2.610;2023-05-07T10:23:34;7;5;
55276;PMS5003;41136;51.478;-2.610;2023-05-07T10:25:59;5;5;
55276;PMS5003;41136;51.478;-2.610;2023-05-07T10:28:24;9;8;
55276;PMS5003;41136;51.478;-2.610;2023-05-07T10:30:53;4;4;
55276;PMS5003;41136;51.478;-2.610;2023-05-07T10:33:15;8;7;
55276;PMS5003;41136;51.478;-2.610;2023-05-07T10:35:41;4;4;
55276;PMS5003;41136;51.478;-2.610;2023-05-07T10:38:05;7;5;
55276;PMS5003;41136;51.478;-2.610;2023-05-07T10:40:31;7;5;
55276;PMS5003;41136;51.478;-2.610;2023-05-07T10:42:56;6;6;
55276;PMS5003;41136;51.478;-2.610;2023-05-07T10:45:22;4;4;
55276;PMS5003;41136;51.478;-2.610;2023-05-07T10:52:38;5;5;
55276;PMS5003;41136;51.478;-2.610;2023-05-07T10:59:54;5;5;
55276;PMS5003;41136;51.478;-2.610;2023-05-07T11:02:19;6;6;
55276;PMS5003;41136;51.478;-2.610;2023-05-07T11:04:45;9;7;
55276;PMS5003;41136;51.478;-2.610;2023-05-07T11:12:00;9;8;
55276;PMS5003;41136;51.478;-2.610;2023-05-07T11:16:52;12;11;
55276;PMS5003;41136;51.478;-2.610;2023-05-07T11:19:16;11;11;
55276;PMS5003;41136;51.478;-2.610;2023-05-07T11:21:41;12;9;
55276;PMS5003;41136;51.478;-2.610;2023-05-07T11:24:07;11;9;
55276;PMS5003;41136;51.478;-2.610;2023-05-07T11:28:57;15;13;
55276;PMS5003;41136;51.478;-2.610;2023-05-07T11:31:23;12;9;
55276;PMS5003;41136;51.478;-2.610;2023-05-07T11:33:48;10;10;
55276;PMS5003;41136;51.478;-2.610;2023-05-07T11:36:13;10;8;
55276;PMS5003;41136;51.478;-2.610;2023-05-07T11:38:38;11;9;
55276;PMS5003;41136;51.478;-2.610;2023-05-07T11:41:04;9;8;
55276;PMS5003;41136;51.478;-2.610;2023-05-07T11:43:29;9;9;
55276;PMS5003;41136;51.478;-2.610;2023-05-07T11:45:55;11;8;
55276;PMS5003;41136;51.478;-2.610;2023-05-07T11:48:20;10;9;
55276;PMS5003;41136;51.478;-2.610;2023-05-07T11:53:10;10;8;
55276;PMS5003;41136;51.478;-2.610;2023-05-07T11:55:36;12;10;
55276;PMS5003;41136;51.478;-2.610;2023-05-07T11:58:01;12;12;
55276;PMS5003;41136;51.478;-2.610;2023-05-07T12:00:26;18;13;
55276;PMS5003;41136;51.478;-2.610;2023-05-07T12:02:51;15;14;
55276;PMS5003;41136;51.478;-2.610;2023-05-07T12:05:17;15;12;
55276;PMS5003;41136;51.478;-2.610;2023-05-07T12:07:43;18;16;
55276;PMS5003;41136;51.478;-2.610;2023-05-07T12:10:08;18;15;
55276;PMS5003;41136;51.478;-2.610;2023-05-07T12:12:37;16;12;
55276;PMS5003;41136;51.478;-2.610;2023-05-07T12:14:58;20;16;
55276;PMS5003;41136;51.478;-2.610;2023-05-07T12:17:24;18;18;
55276;PMS5003;41136;51.478;-2.610;2023-05-07T12:19:49;24;18;
55276;PMS5003;41136;51.478;-2.610;2023-05-07T12:22:15;18;17;
55276;PMS5003;41136;51.478;-2.610;2023-05-07T12:24:43;20;17;
55276;PMS5003;41136;51.478;-2.610;2023-05-07T12:27:05;25;20;
55276;PMS5003;41136;51.478;-2.610;2023-05-07T12:29:30;23;21;
55276;PMS5003;41136;51.478;-2.610;2023-05-07T12:31:56;31;24;
55276;PMS5003;41136;51.478;-2.610;2023-05-07T12:34:22;27;22;
55276;PMS5003;41136;51.478;-2.610;2023-05-07T12:36:47;28;23;
55276;PMS5003;41136;51.478;-2.610;2023-05-07T12:39:12;21;17;
55276;PMS5003;41136;51.478;-2.610;2023-05-07T12:44:04;19;15;
55276;PMS5003;41136;51.478;-2.610;2023-05-07T12:46:28;13;12;
55276;PMS5003;41136;51.478;-2.610;2023-05-07T12:48:54;14;14;
55276;PMS5003;41136;51.478;-2.610;2023-05-07T12:51:19;14;12;
55276;PMS5003;41136;51.478;-2.610;2023-05-07T12:53:45;9;9;
55276;PMS5003;41136;51.478;-2.610;2023-05-07T12:56:10;16;12;
55276;PMS5003;41136;51.478;-2.610;2023-05-07T12:58:36;12;9;
55276;PMS5003;41136;51.478;-2.610;2023-05-07T13:01:03;15;14;
55276;PMS5003;41136;51.478;-2.610;2023-05-07T13:03:27;11;10;
55276;PMS5003;41136;51.478;-2.610;2023-05-07T13:05:52;20;17;
55276;PMS5003;41136;51.478;-2.610;2023-05-07T13:10:43;11;11;
55276;PMS5003;41136;51.478;-2.610;2023-05-07T13:13:08;9;9;
55276;PMS5003;41136;51.478;-2.610;2023-05-07T13:15:33;10;9;
55276;PMS5003;41136;51.478;-2.610;2023-05-07T13:17:59;11;8;
55276;PMS5003;41136;51.478;-2.610;2023-05-07T13:20:24;6;6;
55276;PMS5003;41136;51.478;-2.610;2023-05-07T13:22:49;10;7;
55276;PMS5003;41136;51.478;-2.610;2023-05-07T13:25:14;4;4;
55276;PMS5003;41136;51.478;-2.610;2023-05-07T13:27:40;8;5;
55276;PMS5003;41136;51.478;-2.610;2023-05-07T13:30:06;5;5;
55276;PMS5003;41136;51.478;-2.610;2023-05-07T13:32:30;7;7;
55276;PMS5003;41136;51.478;-2.610;2023-05-07T13:34:56;4;4;
55276;PMS5003;41136;51.478;-2.610;2023-05-07T13:37:22;5;5;
55276;PMS5003;41136;51.478;-2.610;2023-05-07T13:39:48;5;5;
55276;PMS5003;41136;51.478;-2.610;2023-05-07T13:42:12;3;3;
55276;PMS5003;41136;51.478;-2.610;2023-05-07T13:44:38;5;5;
55276;PMS5003;41136;51.478;-2.610;2023-05-07T13:47:03;6;4;
55276;PMS5003;41136;51.478;-2.610;2023-05-07T13:49:28;3;3;
55276;PMS5003;41136;51.478;-2.610;2023-05-07T13:51:53;7;6;
55276;PMS5003;41136;51.478;-2.610;2023-05-07T13:54:19;3;3;
55276;PMS5003;41136;51.478;-2.610;2023-05-07T13:56:44;4;3;
55276;PMS5003;41136;51.478;-2.610;2023-05-07T13:59:09;3;3;
55276;PMS5003;41136;51.478;-2.610;2023-05-07T14:01:35;5;4;
55276;PMS5003;41136;51.478;-2.610;2023-05-07T14:04:00;5;3;
55276;PMS5003;41136;51.478;-2.610;2023-05-07T14:06:25;6;4;
55276;PMS5003;41136;51.478;-2.610;2023-05-07T14:08:50;5;3;
55276;PMS5003;41136;51.478;-2.610;2023-05-07T14:11:16;4;4;
55276;PMS5003;41136;51.478;-2.610;2023-05-07T14:13:41;5;3;
55276;PMS5003;41136;51.478;-2.610;2023-05-07T14:16:06;3;3;
55276;PMS5003;41136;51.478;-2.610;2023-05-07T14:18:31;5;5;
55276;PMS5003;41136;51.478;-2.610;2023-05-07T14:20:57;5;5;
55276;PMS5003;41136;51.478;-2.610;2023-05-07T14:23:22;5;5;
55276;PMS5003;41136;51.478;-2.610;2023-05-07T14:25:47;4;4;
55276;PMS5003;41136;51.478;-2.610;2023-05-07T14:28:13;4;4;
55276;PMS5003;41136;51.478;-2.610;2023-05-07T14:30:38;4;4;
55276;PMS5003;41136;51.478;-2.610;2023-05-07T14:33:03;5;3;
55276;PMS5003;41136;51.478;-2.610;2023-05-07T14:35:28;11;9;
55276;PMS5003;41136;51.478;-2.610;2023-05-07T14:37:54;7;5;
55276;PMS5003;41136;51.478;-2.610;2023-05-07T14:40:19;5;5;
55276;PMS5003;41136;51.478;-2.610;2023-05-07T14:42:44;7;5;
55276;PMS5003;41136;51.478;-2.610;2023-05-07T14:45:10;4;2;
55276;PMS5003;41136;51.478;-2.610;2023-05-07T14:47:35;3;3;
55276;PMS5003;41136;51.478;-2.610;2023-05-07T14:50:00;4;4;
55276;PMS5003;41136;51.478;-2.610;2023-05-07T14:52:25;3;3;
55276;PMS5003;41136;51.478;-2.610;2023-05-07T14:54:51;2;2;
55276;PMS5003;41136;51.478;-2.610;2023-05-07T14:57:16;3;3;
55276;PMS5003;41136;51.478;-2.610;2023-05-07T14:59:42;4;4;
55276;PMS5003;41136;51.478;-2.610;2023-05-07T15:02:07;4;4;
55276;PMS5003;41136;51.478;-2.610;2023-05-07T15:04:32;6;6;
55276;PMS5003;41136;51.478;-2.610;2023-05-07T15:06:57;3;3;
55276;PMS5003;41136;51.478;-2.610;2023-05-07T15:09:22;4;2;
55276;PMS5003;41136;51.478;-2.610;2023-05-07T15:11:48;5;5;
55276;PMS5003;41136;51.478;-2.610;2023-05-07T15:14:13;3;3;
55276;PMS5003;41136;51.478;-2.610;2023-05-07T15:16:38;4;4;
55276;PMS5003;41136;51.478;-2.610;2023-05-07T15:19:04;3;3;
55276;PMS5003;41136;51.478;-2.610;2023-05-07T15:21:29;2;2;
55276;PMS5003;41136;51.478;-2.610;2023-05-07T15:23:54;2;2;
55276;PMS5003;41136;51.478;-2.610;2023-05-07T15:26:19;3;3;
55276;PMS5003;41136;51.478;-2.610;2023-05-07T15:28:45;3;3;
55276;PMS5003;41136;51.478;-2.610;2023-05-07T15:31:10;6;4;
55276;PMS5003;41136;51.478;-2.610;2023-05-07T15:33:35;3;3;
55276;PMS5003;41136;51.478;-2.610;2023-05-07T15:36:00;3;3;
55276;PMS5003;41136;51.478;-2.610;2023-05-07T15:38:26;4;4;
55276;PMS5003;41136;51.478;-2.610;2023-05-07T15:40:51;3;3;
55276;PMS5003;41136;51.478;-2.610;2023-05-07T15:43:16;5;4;
55276;PMS5003;41136;51.478;-2.610;2023-05-07T15:45:42;3;3;
55276;PMS5003;41136;51.478;-2.610;2023-05-07T15:48:07;6;6;
55276;PMS5003;41136;51.478;-2.610;2023-05-07T15:50:32;4;4;
55276;PMS5003;41136;51.478;-2.610;2023-05-07T15:52:57;4;4;
55276;PMS5003;41136;51.478;-2.610;2023-05-07T15:55:23;3;3;
55276;PMS5003;41136;51.478;-2.610;2023-05-07T15:57:48;5;5;
55276;PMS5003;41136;51.478;-2.610;2023-05-07T16:03:24;6;6;
55276;PMS5003;41136;51.478;-2.610;2023-05-07T16:05:49;4;4;
55276;PMS5003;41136;51.478;-2.610;2023-05-07T16:08:14;5;4;
55276;PMS5003;41136;51.478;-2.610;2023-05-07T16:10:40;7;6;
55276;PMS5003;41136;51.478;-2.610;2023-05-07T16:13:05;3;3;
55276;PMS5003;41136;51.478;-2.610;2023-05-07T16:15:30;4;4;
55276;PMS5003;41136;51.478;-2.610;2023-05-07T16:17:55;4;4;
55276;PMS5003;41136;51.478;-2.610;2023-05-07T16:20:21;2;2;
55276;PMS5003;41136;51.478;-2.610;2023-05-07T16:27:05;7;5;
55276;PMS5003;41136;51.478;-2.610;2023-05-07T16:32:09;2;2;
55276;PMS5003;41136;51.478;-2.610;2023-05-07T16:34:34;3;3;
55276;PMS5003;41136;51.478;-2.610;2023-05-07T16:37:00;3;3;
55276;PMS5003;41136;51.478;-2.610;2023-05-07T16:39:25;3;3;
55276;PMS5003;41136;51.478;-2.610;2023-05-07T16:45:44;3;3;
55276;PMS5003;41136;51.478;-2.610;2023-05-07T16:51:57;8;6;
55276;PMS5003;41136;51.478;-2.610;2023-05-07T16:54:22;4;4;
55276;PMS5003;41136;51.478;-2.610;2023-05-07T16:56:47;9;9;